sensor_id;sensor_type;location;lat;lon;timestamp;temperature;humidity
43043;DHT22;28667;50.758;6.096;2023-02-15T00:01:32;2.70;99.90
43043;DHT22;28667;50.758;6.096;2023-02-15T00:03:58;2.60;99.90
43043;DHT22;28667;50.758;6.096;2023-02-15T00:06:24;2.60;99.90
43043;DHT22;28667;50.758;6.096;2023-02-15T00:08:50;2.60;99.90
43043;DHT22;28667;50.758;6.096;2023-02-15T00:11:18;2.60;99.90
43043;DHT22;28667;50.758;6.096;2023-02-15T00:14:15;2.60;99.90
43043;DHT22;28667;50.758;6.096;2023-02-15T00:16:42;2.50;99.90
43043;DHT22;28667;50.758;6.096;2023-02-15T00:19:09;2.50;99.90
43043;DHT22;28667;50.758;6.096;2023-02-15T00:21:36;2.50;99.90
43043;DHT22;28667;50.758;6.096;2023-02-15T00:24:04;2.50;99.90
43043;DHT22;28667;50.758;6.096;2023-02-15T00:26:30;2.40;99.90
43043;DHT22;28667;50.758;6.096;2023-02-15T00:28:57;2.40;99.90
43043;DHT22;28667;50.758;6.096;2023-02-15T00:31:27;2.40;99.90
43043;DHT22;28667;50.758;6.096;2023-02-15T00:33:55;2.40;99.90
43043;DHT22;28667;50.758;6.096;2023-02-15T00:36:20;2.40;99.90
43043;DHT22;28667;50.758;6.096;2023-02-15T00:38:47;2.30;99.90
43043;DHT22;28667;50.758;6.096;2023-02-15T00:41:13;2.30;99.90
43043;DHT22;28667;50.758;6.096;2023-02-15T00:43:39;2.30;99.90
43043;DHT22;28667;50.758;6.096;2023-02-15T00:46:05;2.30;99.90
43043;DHT22;28667;50.758;6.096;2023-02-15T00:48:31;2.20;99.90
43043;DHT22;28667;50.758;6.096;2023-02-15T00:50:58;2.20;99.90
43043;DHT22;28667;50.758;6.096;2023-02-15T00:53:26;2.20;99.90
43043;DHT22;28667;50.758;6.096;2023-02-15T00:55:52;2.20;99.90
43043;DHT22;28667;50.758;6.096;2023-02-15T00:58:18;2.10;99.90
43043;DHT22;28667;50.758;6.096;2023-02-15T01:00:45;2.10;99.90
43043;DHT22;28667;50.758;6.096;2023-02-15T01:03:13;2.10;99.90
43043;DHT22;28667;50.758;6.096;2023-02-15T01:05:39;2.10;99.90
43043;DHT22;28667;50.758;6.096;2023-02-15T01:08:05;2.00;99.90
43043;DHT22;28667;50.758;6.096;2023-02-15T01:10:33;2.00;99.90
43043;DHT22;28667;50.758;6.096;2023-02-15T01:12:59;2.00;99.90
43043;DHT22;28667;50.758;6.096;2023-02-15T01:15:26;1.90;99.90
43043;DHT22;28667;50.758;6.096;2023-02-15T01:17:52;1.90;99.90
43043;DHT22;28667;50.758;6.096;2023-02-15T01:20:25;1.90;99.90
43043;DHT22;28667;50.758;6.096;2023-02-15T01:22:52;1.90;99.90
43043;DHT22;28667;50.758;6.096;2023-02-15T01:25:20;1.90;99.90
43043;DHT22;28667;50.758;6.096;2023-02-15T01:27:47;1.80;99.90
43043;DHT22;28667;50.758;6.096;2023-02-15T01:30:14;1.80;99.90
43043;DHT22;28667;50.758;6.096;2023-02-15T01:32:41;1.90;99.90
43043;DHT22;28667;50.758;6.096;2023-02-15T01:35:08;1.80;99.90
43043;DHT22;28667;50.758;6.096;2023-02-15T01:37:34;1.80;99.90
43043;DHT22;28667;50.758;6.096;2023-02-15T01:40:01;1.90;99.90
43043;DHT22;28667;50.758;6.096;2023-02-15T01:42:28;1.80;99.90
43043;DHT22;28667;50.758;6.096;2023-02-15T01:45:00;1.80;99.90
43043;DHT22;28667;50.758;6.096;2023-02-15T01:47:39;1.80;99.90
43043;DHT22;28667;50.758;6.096;2023-02-15T01:50:16;1.80;99.90
43043;DHT22;28667;50.758;6.096;2023-02-15T01:52:58;1.80;99.90
43043;DHT22;28667;50.758;6.096;2023-02-15T01:55:33;1.70;99.90
43043;DHT22;28667;50.758;6.096;2023-02-15T01:58:00;1.70;99.90
43043;DHT22;28667;50.758;6.096;2023-02-15T02:00:26;1.70;99.90
43043;DHT22;28667;50.758;6.096;2023-02-15T02:02:55;1.60;99.90
43043;DHT22;28667;50.758;6.096;2023-02-15T02:05:25;1.60;99.90
43043;DHT22;28667;50.758;6.096;2023-02-15T02:07:52;1.60;99.90
43043;DHT22;28667;50.758;6.096;2023-02-15T02:10:22;1.50;99.90
43043;DHT22;28667;50.758;6.096;2023-02-15T02:12:52;1.50;99.90
43043;DHT22;28667;50.758;6.096;2023-02-15T02:15:23;1.50;99.90
43043;DHT22;28667;50.758;6.096;2023-02-15T02:18:04;1.50;99.90
43043;DHT22;28667;50.758;6.096;2023-02-15T02:34:53;1.40;99.90
43043;DHT22;28667;50.758;6.096;2023-02-15T02:37:35;1.30;99.90
43043;DHT22;28667;50.758;6.096;2023-02-15T02:40:11;1.30;99.90
43043;DHT22;28667;50.758;6.096;2023-02-15T02:42:43;1.30;99.90
43043;DHT22;28667;50.758;6.096;2023-02-15T02:45:20;1.30;99.90
43043;DHT22;28667;50.758;6.096;2023-02-15T02:47:57;1.20;99.90
43043;DHT22;28667;50.758;6.096;2023-02-15T02:50:27;1.20;99.90
43043;DHT22;28667;50.758;6.096;2023-02-15T02:52:56;1.20;99.90
43043;DHT22;28667;50.758;6.096;2023-02-15T02:55:40;1.20;99.90
43043;DHT22;28667;50.758;6.096;2023-02-15T02:58:20;1.10;99.90
43043;DHT22;28667;50.758;6.096;2023-02-15T03:00:57;1.10;99.90
43043;DHT22;28667;50.758;6.096;2023-02-15T03:05:58;1.10;99.90
43043;DHT22;28667;50.758;6.096;2023-02-15T03:08:29;1.10;99.90
43043;DHT22;28667;50.758;6.096;2023-02-15T03:10:59;1.10;99.90
43043;DHT22;28667;50.758;6.096;2023-02-15T03:13:26;1.00;99.90
43043;DHT22;28667;50.758;6.096;2023-02-15T03:15:53;1.00;99.90
43043;DHT22;28667;50.758;6.096;2023-02-15T03:18:43;1.00;99.90
43043;DHT22;28667;50.758;6.096;2023-02-15T03:21:11;1.00;99.90
43043;DHT22;28667;50.758;6.096;2023-02-15T03:23:53;1.00;99.90
43043;DHT22;28667;50.758;6.096;2023-02-15T03:26:20;0.90;99.90
43043;DHT22;28667;50.758;6.096;2023-02-15T03:28:49;0.90;99.90
43043;DHT22;28667;50.758;6.096;2023-02-15T03:31:18;0.90;99.90
43043;DHT22;28667;50.758;6.096;2023-02-15T03:33:55;0.90;99.90
43043;DHT22;28667;50.758;6.096;2023-02-15T03:36:30;0.90;99.90
43043;DHT22;28667;50.758;6.096;2023-02-15T03:39:26;0.80;99.90
43043;DHT22;28667;50.758;6.096;2023-02-15T03:42:14;0.80;99.90
43043;DHT22;28667;50.758;6.096;2023-02-15T03:47:20;0.80;99.90
43043;DHT22;28667;50.758;6.096;2023-02-15T03:49:57;0.80;99.90
43043;DHT22;28667;50.758;6.096;2023-02-15T03:52:25;0.80;99.90
43043;DHT22;28667;50.758;6.096;2023-02-15T03:54:52;0.70;99.90
43043;DHT22;28667;50.758;6.096;2023-02-15T03:57:24;0.70;99.90
43043;DHT22;28667;50.758;6.096;2023-02-15T04:05:41;0.60;99.90
43043;DHT22;28667;50.758;6.096;2023-02-15T04:08:08;0.60;99.90
43043;DHT22;28667;50.758;6.096;2023-02-15T04:10:34;0.60;99.90
43043;DHT22;28667;50.758;6.096;2023-02-15T04:13:19;0.60;99.90
43043;DHT22;28667;50.758;6.096;2023-02-15T04:15:45;0.60;99.90
43043;DHT22;28667;50.758;6.096;2023-02-15T04:18:40;0.50;99.90
43043;DHT22;28667;50.758;6.096;2023-02-15T04:21:26;0.50;99.90
43043;DHT22;28667;50.758;6.096;2023-02-15T04:24:11;0.50;99.90
43043;DHT22;28667;50.758;6.096;2023-02-15T04:26:56;0.50;99.90
43043;DHT22;28667;50.758;6.096;2023-02-15T04:29:23;0.50;99.90
43043;DHT22;28667;50.758;6.096;2023-02-15T04:31:50;0.50;99.90
43043;DHT22;28667;50.758;6.096;2023-02-15T04:34:16;0.40;99.90
43043;DHT22;28667;50.758;6.096;2023-02-15T04:36:42;0.40;99.90
43043;DHT22;28667;50.758;6.096;2023-02-15T04:39:08;0.40;99.90
43043;DHT22;28667;50.758;6.096;2023-02-15T04:41:35;0.40;99.90
43043;DHT22;28667;50.758;6.096;2023-02-15T04:44:01;0.40;99.90
43043;DHT22;28667;50.758;6.096;2023-02-15T04:46:27;0.40;99.90
43043;DHT22;28667;50.758;6.096;2023-02-15T04:48:54;0.30;99.90
43043;DHT22;28667;50.758;6.096;2023-02-15T04:51:19;0.30;99.90
43043;DHT22;28667;50.758;6.096;2023-02-15T04:53:45;0.30;99.90
43043;DHT22;28667;50.758;6.096;2023-02-15T04:56:11;0.30;99.90
43043;DHT22;28667;50.758;6.096;2023-02-15T04:58:37;0.20;99.90
43043;DHT22;28667;50.758;6.096;2023-02-15T05:01:09;0.20;99.90
43043;DHT22;28667;50.758;6.096;2023-02-15T05:03:35;0.20;99.90
43043;DHT22;28667;50.758;6.096;2023-02-15T05:06:02;0.20;99.90
43043;DHT22;28667;50.758;6.096;2023-02-15T05:08:28;0.20;99.90
43043;DHT22;28667;50.758;6.096;2023-02-15T05:10:54;0.20;99.90
43043;DHT22;28667;50.758;6.096;2023-02-15T05:13:19;0.20;99.90
43043;DHT22;28667;50.758;6.096;2023-02-15T05:15:49;0.20;99.90
43043;DHT22;28667;50.758;6.096;2023-02-15T05:18:16;0.20;99.90
43043;DHT22;28667;50.758;6.096;2023-02-15T05:20:42;0.20;99.90
43043;DHT22;28667;50.758;6.096;2023-02-15T05:23:08;0.20;99.90
43043;DHT22;28667;50.758;6.096;2023-02-15T05:25:34;0.20;99.90
43043;DHT22;28667;50.758;6.096;2023-02-15T05:28:19;0.10;99.90
43043;DHT22;28667;50.758;6.096;2023-02-15T05:30:48;0.10;99.90
43043;DHT22;28667;50.758;6.096;2023-02-15T05:33:14;0.10;99.90
43043;DHT22;28667;50.758;6.096;2023-02-15T05:35:40;0.10;99.90
43043;DHT22;28667;50.758;6.096;2023-02-15T05:38:06;0.10;99.90
43043;DHT22;28667;50.758;6.096;2023-02-15T05:40:32;0.10;99.90
43043;DHT22;28667;50.758;6.096;2023-02-15T05:42:58;0.00;99.90
43043;DHT22;28667;50.758;6.096;2023-02-15T05:45:24;0.10;99.90
43043;DHT22;28667;50.758;6.096;2023-02-15T05:47:49;0.00;99.90
43043;DHT22;28667;50.758;6.096;2023-02-15T05:50:15;0.00;99.90
43043;DHT22;28667;50.758;6.096;2023-02-15T05:52:41;0.00;99.90
43043;DHT22;28667;50.758;6.096;2023-02-15T05:55:07;0.00;99.90
43043;DHT22;28667;50.758;6.096;2023-02-15T05:57:34;0.00;99.90
43043;DHT22;28667;50.758;6.096;2023-02-15T06:00:01;0.00;99.90
43043;DHT22;28667;50.758;6.096;2023-02-15T06:02:37;-0.10;99.90
43043;DHT22;28667;50.758;6.096;2023-02-15T06:05:04;-0.10;99.90
43043;DHT22;28667;50.758;6.096;2023-02-15T06:07:30;-0.10;99.90
43043;DHT22;28667;50.758;6.096;2023-02-15T06:09:56;-0.10;99.90
43043;DHT22;28667;50.758;6.096;2023-02-15T06:12:22;-0.10;99.90
43043;DHT22;28667;50.758;6.096;2023-02-15T06:14:47;-0.10;99.90
43043;DHT22;28667;50.758;6.096;2023-02-15T06:17:13;-0.10;99.90
43043;DHT22;28667;50.758;6.096;2023-02-15T06:19:39;-0.10;99.90
43043;DHT22;28667;50.758;6.096;2023-02-15T06:22:05;-0.10;99.90
43043;DHT22;28667;50.758;6.096;2023-02-15T06:24:32;0.00;99.90
43043;DHT22;28667;50.758;6.096;2023-02-15T06:26:57;0.00;99.90
43043;DHT22;28667;50.758;6.096;2023-02-15T06:29:23;-0.10;99.90
43043;DHT22;28667;50.758;6.096;2023-02-15T06:31:49;-0.10;99.90
43043;DHT22;28667;50.758;6.096;2023-02-15T06:34:15;0.00;99.90
43043;DHT22;28667;50.758;6.096;2023-02-15T06:36:40;-0.10;99.90
43043;DHT22;28667;50.758;6.096;2023-02-15T06:39:06;-0.10;99.90
43043;DHT22;28667;50.758;6.096;2023-02-15T06:41:32;0.00;99.90
43043;DHT22;28667;50.758;6.096;2023-02-15T06:43:58;0.00;99.90
43043;DHT22;28667;50.758;6.096;2023-02-15T06:46:23;0.00;99.90
43043;DHT22;28667;50.758;6.096;2023-02-15T06:48:49;0.00;99.90
43043;DHT22;28667;50.758;6.096;2023-02-15T06:51:15;-0.10;99.90
43043;DHT22;28667;50.758;6.096;2023-02-15T06:53:41;0.00;99.90
43043;DHT22;28667;50.758;6.096;2023-02-15T06:56:09;-0.10;99.90
43043;DHT22;28667;50.758;6.096;2023-02-15T06:58:35;0.00;99.90
43043;DHT22;28667;50.758;6.096;2023-02-15T07:01:01;0.00;99.90
43043;DHT22;28667;50.758;6.096;2023-02-15T07:03:27;0.00;99.90
43043;DHT22;28667;50.758;6.096;2023-02-15T07:05:57;-0.10;99.90
43043;DHT22;28667;50.758;6.096;2023-02-15T07:08:24;0.00;99.90
43043;DHT22;28667;50.758;6.096;2023-02-15T07:10:51;0.00;99.90
43043;DHT22;28667;50.758;6.096;2023-02-15T07:13:17;0.00;99.90
43043;DHT22;28667;50.758;6.096;2023-02-15T07:15:43;0.00;99.90
43043;DHT22;28667;50.758;6.096;2023-02-15T07:18:09;0.00;99.90
43043;DHT22;28667;50.758;6.096;2023-02-15T07:20:37;0.10;99.90
43043;DHT22;28667;50.758;6.096;2023-02-15T07:23:03;0.10;99.90
43043;DHT22;28667;50.758;6.096;2023-02-15T07:25:30;0.10;99.90
43043;DHT22;28667;50.758;6.096;2023-02-15T07:28:00;0.20;99.90
43043;DHT22;28667;50.758;6.096;2023-02-15T07:30:26;0.20;99.90
43043;DHT22;28667;50.758;6.096;2023-02-15T07:32:56;0.20;99.90
43043;DHT22;28667;50.758;6.096;2023-02-15T07:35:48;0.20;99.90
43043;DHT22;28667;50.758;6.096;2023-02-15T07:38:14;0.30;99.90
43043;DHT22;28667;50.758;6.096;2023-02-15T07:40:40;0.30;99.90
43043;DHT22;28667;50.758;6.096;2023-02-15T07:43:05;0.40;99.90
43043;DHT22;28667;50.758;6.096;2023-02-15T07:45:31;0.40;99.90
43043;DHT22;28667;50.758;6.096;2023-02-15T07:47:57;0.50;99.90
43043;DHT22;28667;50.758;6.096;2023-02-15T07:50:23;0.50;99.90
43043;DHT22;28667;50.758;6.096;2023-02-15T07:52:48;0.60;99.90
43043;DHT22;28667;50.758;6.096;2023-02-15T07:55:14;0.60;99.90
43043;DHT22;28667;50.758;6.096;2023-02-15T07:57:44;0.70;99.90
43043;DHT22;28667;50.758;6.096;2023-02-15T08:00:14;0.70;99.90
43043;DHT22;28667;50.758;6.096;2023-02-15T08:02:41;0.80;99.90
43043;DHT22;28667;50.758;6.096;2023-02-15T08:05:07;0.90;99.90
43043;DHT22;28667;50.758;6.096;2023-02-15T08:07:33;1.00;99.90
43043;DHT22;28667;50.758;6.096;2023-02-15T08:09:59;1.10;99.90
43043;DHT22;28667;50.758;6.096;2023-02-15T08:12:28;1.10;99.90
43043;DHT22;28667;50.758;6.096;2023-02-15T08:14:53;1.20;99.90
43043;DHT22;28667;50.758;6.096;2023-02-15T08:17:19;1.30;99.90
43043;DHT22;28667;50.758;6.096;2023-02-15T08:19:45;1.40;99.90
43043;DHT22;28667;50.758;6.096;2023-02-15T08:22:13;1.50;99.90
43043;DHT22;28667;50.758;6.096;2023-02-15T08:24:40;1.60;99.90
43043;DHT22;28667;50.758;6.096;2023-02-15T08:27:08;1.70;99.90
43043;DHT22;28667;50.758;6.096;2023-02-15T08:29:36;1.90;99.90
43043;DHT22;28667;50.758;6.096;2023-02-15T08:32:08;2.00;99.90
43043;DHT22;28667;50.758;6.096;2023-02-15T08:34:37;2.10;99.90
43043;DHT22;28667;50.758;6.096;2023-02-15T08:37:03;2.30;99.90
43043;DHT22;28667;50.758;6.096;2023-02-15T08:39:29;2.40;99.90
43043;DHT22;28667;50.758;6.096;2023-02-15T08:41:55;2.50;99.90
43043;DHT22;28667;50.758;6.096;2023-02-15T08:44:21;2.60;99.90
43043;DHT22;28667;50.758;6.096;2023-02-15T08:46:48;2.70;99.90
43043;DHT22;28667;50.758;6.096;2023-02-15T08:49:19;2.80;99.90
43043;DHT22;28667;50.758;6.096;2023-02-15T08:51:45;3.00;99.90
43043;DHT22;28667;50.758;6.096;2023-02-15T08:54:17;3.10;99.90
43043;DHT22;28667;50.758;6.096;2023-02-15T08:56:43;3.40;99.90
43043;DHT22;28667;50.758;6.096;2023-02-15T08:59:15;3.60;99.90
43043;DHT22;28667;50.758;6.096;2023-02-15T09:01:41;3.80;99.90
43043;DHT22;28667;50.758;6.096;2023-02-15T09:04:08;4.10;99.90
43043;DHT22;28667;50.758;6.096;2023-02-15T09:06:35;4.30;99.90
43043;DHT22;28667;50.758;6.096;2023-02-15T09:09:02;4.50;99.90
43043;DHT22;28667;50.758;6.096;2023-02-15T09:11:32;4.80;99.90
43043;DHT22;28667;50.758;6.096;2023-02-15T09:14:00;5.10;99.90
43043;DHT22;28667;50.758;6.096;2023-02-15T09:16:29;5.40;99.90
43043;DHT22;28667;50.758;6.096;2023-02-15T09:18:56;5.60;99.90
43043;DHT22;28667;50.758;6.096;2023-02-15T09:21:31;5.70;99.90
43043;DHT22;28667;50.758;6.096;2023-02-15T09:24:02;5.90;99.90
43043;DHT22;28667;50.758;6.096;2023-02-15T09:26:30;6.10;99.90
43043;DHT22;28667;50.758;6.096;2023-02-15T09:28:58;6.30;99.90
43043;DHT22;28667;50.758;6.096;2023-02-15T09:31:27;6.50;99.90
43043;DHT22;28667;50.758;6.096;2023-02-15T09:33:53;6.70;99.90
43043;DHT22;28667;50.758;6.096;2023-02-15T09:36:31;7.00;99.90
43043;DHT22;28667;50.758;6.096;2023-02-15T09:39:15;7.20;99.90
43043;DHT22;28667;50.758;6.096;2023-02-15T09:47:43;7.70;99.90
43043;DHT22;28667;50.758;6.096;2023-02-15T09:53:09;7.70;99.90
43043;DHT22;28667;50.758;6.096;2023-02-15T10:15:27;8.20;99.90
43043;DHT22;28667;50.758;6.096;2023-02-15T10:26:49;8.80;99.90
43043;DHT22;28667;50.758;6.096;2023-02-15T10:31:49;9.00;99.90
43043;DHT22;28667;50.758;6.096;2023-02-15T10:34:23;8.90;99.90
43043;DHT22;28667;50.758;6.096;2023-02-15T10:53:26;9.00;99.90
43043;DHT22;28667;50.758;6.096;2023-02-15T11:06:48;9.80;99.90
43043;DHT22;28667;50.758;6.096;2023-02-15T11:09:16;9.90;99.90
43043;DHT22;28667;50.758;6.096;2023-02-15T11:11:53;10.00;99.90
43043;DHT22;28667;50.758;6.096;2023-02-15T11:17:49;10.10;99.90
43043;DHT22;28667;50.758;6.096;2023-02-15T11:20:35;10.10;99.90
43043;DHT22;28667;50.758;6.096;2023-02-15T11:23:02;10.10;99.90
43043;DHT22;28667;50.758;6.096;2023-02-15T11:25:30;10.10;99.90
43043;DHT22;28667;50.758;6.096;2023-02-15T11:27:57;10.00;99.90
43043;DHT22;28667;50.758;6.096;2023-02-15T11:30:43;10.10;99.90
43043;DHT22;28667;50.758;6.096;2023-02-15T11:33:18;10.20;99.90
43043;DHT22;28667;50.758;6.096;2023-02-15T11:36:09;10.30;99.90
43043;DHT22;28667;50.758;6.096;2023-02-15T11:38:36;10.30;99.90
43043;DHT22;28667;50.758;6.096;2023-02-15T11:41:18;10.30;99.90
43043;DHT22;28667;50.758;6.096;2023-02-15T11:43:50;10.20;99.90
43043;DHT22;28667;50.758;6.096;2023-02-15T11:46:19;10.10;99.90
43043;DHT22;28667;50.758;6.096;2023-02-15T11:48:47;10.00;99.90
43043;DHT22;28667;50.758;6.096;2023-02-15T11:51:16;9.80;99.90
43043;DHT22;28667;50.758;6.096;2023-02-15T11:53:43;9.70;99.90
43043;DHT22;28667;50.758;6.096;2023-02-15T11:56:18;9.60;99.90
43043;DHT22;28667;50.758;6.096;2023-02-15T11:58:55;9.80;99.90
43043;DHT22;28667;50.758;6.096;2023-02-15T12:01:44;9.90;99.90
43043;DHT22;28667;50.758;6.096;2023-02-15T12:12:27;11.00;99.40
43043;DHT22;28667;50.758;6.096;2023-02-15T12:14:58;11.20;99.40
43043;DHT22;28667;50.758;6.096;2023-02-15T12:17:31;11.40;98.30
43043;DHT22;28667;50.758;6.096;2023-02-15T12:20:01;11.40;98.30
43043;DHT22;28667;50.758;6.096;2023-02-15T12:22:32;11.50;98.60
43043;DHT22;28667;50.758;6.096;2023-02-15T12:27:46;11.50;98.80
43043;DHT22;28667;50.758;6.096;2023-02-15T12:30:20;11.40;98.10
43043;DHT22;28667;50.758;6.096;2023-02-15T12:32:56;11.40;98.90
43043;DHT22;28667;50.758;6.096;2023-02-15T12:35:32;11.40;98.60
43043;DHT22;28667;50.758;6.096;2023-02-15T12:40:37;11.50;95.00
43043;DHT22;28667;50.758;6.096;2023-02-15T12:43:04;11.60;95.40
43043;DHT22;28667;50.758;6.096;2023-02-15T12:45:38;11.60;94.60
43043;DHT22;28667;50.758;6.096;2023-02-15T12:50:51;11.70;94.10
43043;DHT22;28667;50.758;6.096;2023-02-15T12:53:43;11.80;94.40
43043;DHT22;28667;50.758;6.096;2023-02-15T12:56:10;11.80;94.10
43043;DHT22;28667;50.758;6.096;2023-02-15T12:58:40;11.80;94.50
43043;DHT22;28667;50.758;6.096;2023-02-15T13:03:36;11.80;94.20
43043;DHT22;28667;50.758;6.096;2023-02-15T13:06:04;11.80;93.70
43043;DHT22;28667;50.758;6.096;2023-02-15T13:08:49;11.90;91.80
43043;DHT22;28667;50.758;6.096;2023-02-15T13:11:22;12.10;91.60
43043;DHT22;28667;50.758;6.096;2023-02-15T13:13:52;12.20;91.00
43043;DHT22;28667;50.758;6.096;2023-02-15T13:18:54;12.30;92.50
43043;DHT22;28667;50.758;6.096;2023-02-15T13:21:25;12.30;91.90
43043;DHT22;28667;50.758;6.096;2023-02-15T13:23:56;12.30;92.50
43043;DHT22;28667;50.758;6.096;2023-02-15T13:26:26;12.30;92.60
43043;DHT22;28667;50.758;6.096;2023-02-15T13:28:57;12.20;92.50
43043;DHT22;28667;50.758;6.096;2023-02-15T13:31:26;12.20;92.40
43043;DHT22;28667;50.758;6.096;2023-02-15T13:36:37;12.30;91.80
43043;DHT22;28667;50.758;6.096;2023-02-15T14:15:08;13.30;92.30
43043;DHT22;28667;50.758;6.096;2023-02-15T14:20:39;13.40;92.70
43043;DHT22;28667;50.758;6.096;2023-02-15T14:31:27;13.40;92.30
43043;DHT22;28667;50.758;6.096;2023-02-15T14:33:55;13.30;92.90
43043;DHT22;28667;50.758;6.096;2023-02-15T14:36:22;13.30;93.20
43043;DHT22;28667;50.758;6.096;2023-02-15T14:39:13;13.30;93.60
43043;DHT22;28667;50.758;6.096;2023-02-15T14:42:21;13.20;93.70
43043;DHT22;28667;50.758;6.096;2023-02-15T14:47:46;13.10;94.00
43043;DHT22;28667;50.758;6.096;2023-02-15T14:50:36;13.10;94.50
43043;DHT22;28667;50.758;6.096;2023-02-15T14:55:46;13.00;94.50
43043;DHT22;28667;50.758;6.096;2023-02-15T14:58:13;13.00;94.00
43043;DHT22;28667;50.758;6.096;2023-02-15T15:00:40;13.00;93.50
43043;DHT22;28667;50.758;6.096;2023-02-15T15:03:21;13.00;93.70
43043;DHT22;28667;50.758;6.096;2023-02-15T15:05:53;13.00;93.30
43043;DHT22;28667;50.758;6.096;2023-02-15T15:10:55;13.00;93.40
43043;DHT22;28667;50.758;6.096;2023-02-15T15:15:56;12.90;93.40
43043;DHT22;28667;50.758;6.096;2023-02-15T15:18:47;12.90;93.50
43043;DHT22;28667;50.758;6.096;2023-02-15T15:27:44;12.80;94.00
43043;DHT22;28667;50.758;6.096;2023-02-15T15:49:50;12.40;95.80
43043;DHT22;28667;50.758;6.096;2023-02-15T15:52:01;12.20;95.80
43043;DHT22;28667;50.758;6.096;2023-02-15T15:54:28;12.20;95.90
43043;DHT22;28667;50.758;6.096;2023-02-15T15:56:58;12.20;96.20
43043;DHT22;28667;50.758;6.096;2023-02-15T15:59:28;12.10;96.50
43043;DHT22;28667;50.758;6.096;2023-02-15T16:01:54;12.10;96.70
43043;DHT22;28667;50.758;6.096;2023-02-15T16:04:26;12.00;96.70
43043;DHT22;28667;50.758;6.096;2023-02-15T16:06:53;11.90;97.20
43043;DHT22;28667;50.758;6.096;2023-02-15T16:09:24;11.80;97.30
43043;DHT22;28667;50.758;6.096;2023-02-15T16:11:58;11.80;97.30
43043;DHT22;28667;50.758;6.096;2023-02-15T16:14:36;11.70;97.40
43043;DHT22;28667;50.758;6.096;2023-02-15T16:17:05;11.70;97.50
43043;DHT22;28667;50.758;6.096;2023-02-15T16:19:34;11.60;97.90
43043;DHT22;28667;50.758;6.096;2023-02-15T16:22:02;11.50;97.50
43043;DHT22;28667;50.758;6.096;2023-02-15T16:24:38;11.50;97.70
43043;DHT22;28667;50.758;6.096;2023-02-15T16:29:34;11.30;97.70
43043;DHT22;28667;50.758;6.096;2023-02-15T16:32:14;11.30;97.60
43043;DHT22;28667;50.758;6.096;2023-02-15T16:34:51;11.20;97.70
43043;DHT22;28667;50.758;6.096;2023-02-15T16:37:20;11.10;97.70
43043;DHT22;28667;50.758;6.096;2023-02-15T16:39:49;11.10;97.90
43043;DHT22;28667;50.758;6.096;2023-02-15T16:42:17;11.00;98.30
43043;DHT22;28667;50.758;6.096;2023-02-15T16:45:05;10.90;98.60
43043;DHT22;28667;50.758;6.096;2023-02-15T16:47:39;10.80;99.10
43043;DHT22;28667;50.758;6.096;2023-02-15T16:50:06;10.70;99.40
43043;DHT22;28667;50.758;6.096;2023-02-15T16:52:43;10.60;99.60
43043;DHT22;28667;50.758;6.096;2023-02-15T16:55:23;10.50;99.70
43043;DHT22;28667;50.758;6.096;2023-02-15T16:57:50;10.50;99.90
43043;DHT22;28667;50.758;6.096;2023-02-15T17:00:20;10.40;99.90
43043;DHT22;28667;50.758;6.096;2023-02-15T17:03:00;10.30;99.90
43043;DHT22;28667;50.758;6.096;2023-02-15T17:05:32;10.20;99.90
43043;DHT22;28667;50.758;6.096;2023-02-15T17:08:43;10.10;99.90
43043;DHT22;28667;50.758;6.096;2023-02-15T17:11:19;10.00;99.90
43043;DHT22;28667;50.758;6.096;2023-02-15T17:16:36;9.80;99.90
43043;DHT22;28667;50.758;6.096;2023-02-15T17:19:09;9.70;99.90
43043;DHT22;28667;50.758;6.096;2023-02-15T17:21:47;9.60;99.90
43043;DHT22;28667;50.758;6.096;2023-02-15T17:24:24;9.60;99.90
43043;DHT22;28667;50.758;6.096;2023-02-15T17:26:55;9.40;99.90
43043;DHT22;28667;50.758;6.096;2023-02-15T17:29:36;9.40;99.90
43043;DHT22;28667;50.758;6.096;2023-02-15T17:32:04;9.30;99.90
43043;DHT22;28667;50.758;6.096;2023-02-15T17:40:17;9.20;99.90
43043;DHT22;28667;50.758;6.096;2023-02-15T17:42:43;9.20;99.90
43043;DHT22;28667;50.758;6.096;2023-02-15T17:45:09;9.10;99.90
43043;DHT22;28667;50.758;6.096;2023-02-15T17:47:35;9.10;99.90
43043;DHT22;28667;50.758;6.096;2023-02-15T17:50:03;9.10;99.90
43043;DHT22;28667;50.758;6.096;2023-02-15T17:52:30;9.10;99.90
43043;DHT22;28667;50.758;6.096;2023-02-15T17:54:56;9.00;99.90
43043;DHT22;28667;50.758;6.096;2023-02-15T17:57:41;9.00;99.90
43043;DHT22;28667;50.758;6.096;2023-02-15T18:00:07;8.90;99.90
43043;DHT22;28667;50.758;6.096;2023-02-15T18:02:52;8.90;99.90
43043;DHT22;28667;50.758;6.096;2023-02-15T18:05:37;8.90;99.90
43043;DHT22;28667;50.758;6.096;2023-02-15T18:08:26;8.80;99.90
43043;DHT22;28667;50.758;6.096;2023-02-15T18:11:11;8.80;99.90
43043;DHT22;28667;50.758;6.096;2023-02-15T18:13:55;8.80;99.90
43043;DHT22;28667;50.758;6.096;2023-02-15T18:16:28;8.80;99.90
43043;DHT22;28667;50.758;6.096;2023-02-15T18:18:55;8.80;99.90
43043;DHT22;28667;50.758;6.096;2023-02-15T18:21:22;8.70;99.90
43043;DHT22;28667;50.758;6.096;2023-02-15T18:23:48;8.70;99.90
43043;DHT22;28667;50.758;6.096;2023-02-15T18:26:22;8.70;99.90
43043;DHT22;28667;50.758;6.096;2023-02-15T18:28:49;8.60;99.90
43043;DHT22;28667;50.758;6.096;2023-02-15T18:31:15;8.60;99.90
43043;DHT22;28667;50.758;6.096;2023-02-15T18:33:53;8.50;99.90
43043;DHT22;28667;50.758;6.096;2023-02-15T18:36:26;8.50;99.90
43043;DHT22;28667;50.758;6.096;2023-02-15T18:38:56;8.50;99.90
43043;DHT22;28667;50.758;6.096;2023-02-15T18:41:22;8.50;99.90
43043;DHT22;28667;50.758;6.096;2023-02-15T18:43:49;8.40;99.90
43043;DHT22;28667;50.758;6.096;2023-02-15T18:46:16;8.30;99.90
43043;DHT22;28667;50.758;6.096;2023-02-15T18:48:42;8.30;99.90
43043;DHT22;28667;50.758;6.096;2023-02-15T18:51:18;8.20;99.90
43043;DHT22;28667;50.758;6.096;2023-02-15T18:53:46;8.10;99.90
43043;DHT22;28667;50.758;6.096;2023-02-15T18:56:17;8.10;99.90
43043;DHT22;28667;50.758;6.096;2023-02-15T18:58:44;8.00;99.90
43043;DHT22;28667;50.758;6.096;2023-02-15T19:01:15;7.90;99.90
43043;DHT22;28667;50.758;6.096;2023-02-15T19:03:46;7.90;99.90
43043;DHT22;28667;50.758;6.096;2023-02-15T19:06:17;7.80;99.90
43043;DHT22;28667;50.758;6.096;2023-02-15T19:08:45;7.70;99.90
43043;DHT22;28667;50.758;6.096;2023-02-15T19:11:20;7.70;99.90
43043;DHT22;28667;50.758;6.096;2023-02-15T19:13:48;7.70;99.90
43043;DHT22;28667;50.758;6.096;2023-02-15T19:18:51;7.50;99.90
43043;DHT22;28667;50.758;6.096;2023-02-15T19:21:17;7.50;99.90
43043;DHT22;28667;50.758;6.096;2023-02-15T19:23:53;7.50;99.90
43043;DHT22;28667;50.758;6.096;2023-02-15T19:26:20;7.50;99.90
43043;DHT22;28667;50.758;6.096;2023-02-15T19:28:46;7.50;99.90
43043;DHT22;28667;50.758;6.096;2023-02-15T19:31:12;7.40;99.90
43043;DHT22;28667;50.758;6.096;2023-02-15T19:33:38;7.40;99.90
43043;DHT22;28667;50.758;6.096;2023-02-15T19:36:07;7.40;99.90
43043;DHT22;28667;50.758;6.096;2023-02-15T19:38:36;7.40;99.90
43043;DHT22;28667;50.758;6.096;2023-02-15T19:41:07;7.30;99.90